createdAt,value
2019-02-19T00:00:33.903Z,2.26
2019-02-19T00:03:07.205Z,2.06
2019-02-19T00:05:40.493Z,2.01
2019-02-19T00:08:13.753Z,1.98
2019-02-19T00:10:47.070Z,1.70
2019-02-19T00:13:20.373Z,1.96
2019-02-19T00:15:53.683Z,1.92
2019-02-19T00:18:26.958Z,1.91
2019-02-19T00:21:00.258Z,1.78
2019-02-19T00:23:35.075Z,1.74
2019-02-19T00:26:13.146Z,1.62
2019-02-19T00:28:46.446Z,1.66
2019-02-19T00:31:19.741Z,1.66
2019-02-19T00:33:55.126Z,1.66
2019-02-19T00:36:28.419Z,1.60
2019-02-19T00:39:01.721Z,1.58
2019-02-19T00:41:35.026Z,1.59
2019-02-19T00:44:08.318Z,1.43
2019-02-19T00:46:41.614Z,1.49
2019-02-19T00:49:14.898Z,1.85
2019-02-19T00:51:48.198Z,2.47
2019-02-19T00:54:21.481Z,2.93
2019-02-19T00:56:54.784Z,3.20
2019-02-19T00:59:28.070Z,3.15
2019-02-19T01:02:01.386Z,2.89
2019-02-19T01:04:34.669Z,2.97
2019-02-19T01:07:08.015Z,2.69
2019-02-19T01:09:41.295Z,2.67
2019-02-19T01:12:14.674Z,2.54
2019-02-19T01:14:47.964Z,2.51
2019-02-19T01:17:21.244Z,2.41
2019-02-19T01:19:54.548Z,2.36
2019-02-19T01:22:27.842Z,2.13
2019-02-19T01:25:01.713Z,2.25
2019-02-19T01:27:34.990Z,2.16
2019-02-19T01:30:10.148Z,2.11
2019-02-19T01:32:43.428Z,2.05
2019-02-19T01:35:16.725Z,2.09
2019-02-19T01:37:50.014Z,1.97
2019-02-19T01:40:23.378Z,1.90
2019-02-19T01:42:57.718Z,1.94
2019-02-19T01:45:34.283Z,1.99
2019-02-19T01:48:07.751Z,2.25
2019-02-19T01:50:41.045Z,2.03
2019-02-19T01:53:14.158Z,2.25
2019-02-19T01:55:47.454Z,3.97
2019-02-19T01:58:21.723Z,4.60
2019-02-19T02:00:55.038Z,4.08
2019-02-19T02:03:28.320Z,4.64
2019-02-19T02:06:02.653Z,4.66
2019-02-19T02:08:35.930Z,3.90
2019-02-19T02:11:09.231Z,3.76
2019-02-19T02:13:44.062Z,3.10
2019-02-19T02:16:17.372Z,2.98
2019-02-19T02:18:50.657Z,2.88
2019-02-19T02:21:23.955Z,3.11
2019-02-19T02:23:57.218Z,2.91
2019-02-19T02:26:32.833Z,3.61
2019-02-19T02:29:06.108Z,3.33
2019-02-19T02:31:39.402Z,3.00
2019-02-19T02:34:14.200Z,2.79
2019-02-19T02:36:47.500Z,2.53
2019-02-19T02:39:21.441Z,2.73
2019-02-19T02:41:54.746Z,2.91
2019-02-19T02:44:29.138Z,4.18
2019-02-19T02:47:04.480Z,4.18
2019-02-19T02:49:37.757Z,4.34
2019-02-19T02:52:11.066Z,4.66
2019-02-19T02:54:44.325Z,4.86
2019-02-19T02:57:17.638Z,4.93
2019-02-19T02:59:50.915Z,4.96
2019-02-19T03:02:24.212Z,4.93
2019-02-19T03:04:57.494Z,4.74
2019-02-19T03:07:32.427Z,4.60
2019-02-19T03:10:06.485Z,4.47
2019-02-19T03:12:39.866Z,4.31
2019-02-19T03:15:13.512Z,4.15
2019-02-19T03:17:46.812Z,3.95
2019-02-19T03:20:20.086Z,3.75
2019-02-19T03:22:53.399Z,3.59
2019-02-19T03:25:26.687Z,3.78
2019-02-19T03:27:59.976Z,3.63
2019-02-19T03:30:33.280Z,3.80
2019-02-19T03:33:06.601Z,4.05
2019-02-19T03:35:40.160Z,3.97
2019-02-19T03:38:13.496Z,3.82
2019-02-19T03:40:46.738Z,3.90
2019-02-19T03:43:20.045Z,3.98
2019-02-19T03:45:53.331Z,4.14
2019-02-19T03:48:26.692Z,4.24
2019-02-19T03:50:59.989Z,4.09
2019-02-19T03:53:33.289Z,3.88
2019-02-19T03:56:06.631Z,3.62
2019-02-19T03:58:39.953Z,3.76
2019-02-19T04:01:13.274Z,3.52
2019-02-19T04:03:46.645Z,3.41
2019-02-19T04:06:19.911Z,3.25
2019-02-19T04:08:53.211Z,3.15
2019-02-19T04:11:26.506Z,2.98
2019-02-19T04:13:59.832Z,3.35
2019-02-19T04:16:33.112Z,3.26
2019-02-19T04:19:06.413Z,3.45
2019-02-19T04:21:39.692Z,3.80
2019-02-19T04:24:12.813Z,3.63
2019-02-19T04:26:46.102Z,3.22
2019-02-19T04:29:19.402Z,3.08
2019-02-19T04:31:52.690Z,3.00
2019-02-19T04:34:25.987Z,3.65
2019-02-19T04:36:59.314Z,3.91
2019-02-19T04:39:32.609Z,3.96
2019-02-19T04:42:05.885Z,3.89
2019-02-19T04:44:39.168Z,3.71
2019-02-19T04:47:12.453Z,3.52
2019-02-19T04:49:45.755Z,3.41
2019-02-19T04:52:18.877Z,3.42
2019-02-19T04:54:52.178Z,3.46
2019-02-19T04:57:26.028Z,3.51
2019-02-19T04:59:59.296Z,3.67
2019-02-19T05:02:32.613Z,3.99
2019-02-19T05:05:06.545Z,4.19
2019-02-19T05:07:39.841Z,4.16
2019-02-19T05:10:13.223Z,3.95
2019-02-19T05:12:46.532Z,3.85
2019-02-19T05:15:20.384Z,3.89
2019-02-19T05:17:53.652Z,3.95
2019-02-19T05:20:26.962Z,3.95
2019-02-19T05:23:00.228Z,4.34
2019-02-19T05:25:33.533Z,4.83
2019-02-19T05:28:08.030Z,4.98
2019-02-19T05:30:43.169Z,5.14
2019-02-19T05:33:16.722Z,5.20
2019-02-19T05:35:50.001Z,5.19
2019-02-19T05:38:23.303Z,5.19
2019-02-19T05:40:57.811Z,5.29
2019-02-19T05:43:31.098Z,5.29
2019-02-19T05:46:04.420Z,5.35
2019-02-19T05:48:37.713Z,5.32
2019-02-19T05:51:11.017Z,5.38
2019-02-19T05:53:45.936Z,5.48
2019-02-19T05:56:19.223Z,5.56
2019-02-19T05:58:52.516Z,5.56
2019-02-19T06:01:25.825Z,5.59
2019-02-19T06:03:59.220Z,5.61
2019-02-19T06:06:33.273Z,5.67
2019-02-19T06:09:06.630Z,5.70
2019-02-19T06:11:39.992Z,5.68
2019-02-19T06:14:13.385Z,5.70
2019-02-19T06:16:46.679Z,5.76
2019-02-19T06:19:21.291Z,5.82
2019-02-19T06:21:54.659Z,5.89
2019-02-19T06:24:27.983Z,5.91
2019-02-19T06:27:01.280Z,6.02
2019-02-19T06:29:34.566Z,6.01
2019-02-19T06:32:07.878Z,6.01
2019-02-19T06:34:41.207Z,5.99
2019-02-19T06:37:14.516Z,5.98
2019-02-19T06:39:47.811Z,6.01
2019-02-19T06:42:21.091Z,6.07
2019-02-19T06:44:54.403Z,6.11
2019-02-19T06:47:27.687Z,6.15
2019-02-19T06:50:00.987Z,6.19
2019-02-19T06:52:34.264Z,6.17
2019-02-19T06:55:08.250Z,6.29
2019-02-19T06:57:41.520Z,6.32
2019-02-19T07:00:14.895Z,6.26
2019-02-19T07:02:50.151Z,6.20
2019-02-19T07:05:25.032Z,6.13
2019-02-19T07:07:58.311Z,6.19
2019-02-19T07:10:31.603Z,6.14
2019-02-19T07:13:04.871Z,6.11
2019-02-19T07:15:38.433Z,6.09
2019-02-19T07:18:11.734Z,6.05
2019-02-19T07:20:44.998Z,6.01
2019-02-19T07:23:18.310Z,6.01
2019-02-19T07:25:51.604Z,6.00
2019-02-19T07:28:24.890Z,6.02
2019-02-19T07:30:58.256Z,6.02
2019-02-19T07:33:31.531Z,6.05
2019-02-19T07:36:04.904Z,6.05
2019-02-19T07:38:38.181Z,6.11
2019-02-19T07:41:11.481Z,6.17
2019-02-19T07:43:44.894Z,6.27
2019-02-19T07:46:18.224Z,6.28
2019-02-19T07:48:51.515Z,6.30
2019-02-19T07:51:24.815Z,6.29
2019-02-19T07:53:58.088Z,6.28
2019-02-19T07:56:31.375Z,6.32
2019-02-19T07:59:04.657Z,6.28
2019-02-19T08:01:37.938Z,6.24
2019-02-19T08:04:11.242Z,6.22
2019-02-19T08:06:44.534Z,6.22
2019-02-19T08:09:17.818Z,6.19
2019-02-19T08:11:52.642Z,6.21
2019-02-19T08:14:25.948Z,6.19
2019-02-19T08:16:59.291Z,6.20
2019-02-19T08:19:32.574Z,6.20
2019-02-19T08:22:05.865Z,6.21
2019-02-19T08:24:39.159Z,6.19
2019-02-19T08:27:12.448Z,6.20
2019-02-19T08:29:45.719Z,6.19
2019-02-19T08:32:19.000Z,6.21
2019-02-19T08:34:52.280Z,6.23
2019-02-19T08:37:25.566Z,6.18
2019-02-19T08:39:58.829Z,6.24
2019-02-19T08:42:32.125Z,6.27
2019-02-19T08:45:07.424Z,6.32
2019-02-19T08:47:42.857Z,6.39
2019-02-19T08:50:15.769Z,6.45
2019-02-19T08:52:49.068Z,6.55
2019-02-19T08:55:22.340Z,6.51
2019-02-19T08:57:55.637Z,6.50
2019-02-19T09:00:29.422Z,6.50
2019-02-19T09:03:02.740Z,6.51
2019-02-19T09:05:36.018Z,6.51
2019-02-19T09:08:09.388Z,6.47
2019-02-19T09:10:42.668Z,6.42
2019-02-19T09:13:15.968Z,6.31
2019-02-19T09:15:49.248Z,6.40
2019-02-19T09:18:24.108Z,6.57
2019-02-19T09:20:57.409Z,6.56
2019-02-19T09:23:30.739Z,6.60
2019-02-19T09:26:04.003Z,6.60
2019-02-19T09:28:37.303Z,6.56
2019-02-19T09:31:10.584Z,6.46
2019-02-19T09:33:43.910Z,6.48
2019-02-19T09:36:17.178Z,6.55
2019-02-19T09:38:50.499Z,6.63
2019-02-19T09:41:23.776Z,6.75
2019-02-19T09:43:57.066Z,6.83
2019-02-19T09:46:30.349Z,6.91
2019-02-19T09:49:03.650Z,6.97
2019-02-19T09:51:36.952Z,6.94
2019-02-19T09:54:10.274Z,7.08
2019-02-19T09:56:43.556Z,7.27
2019-02-19T09:59:16.833Z,7.36
2019-02-19T10:01:50.105Z,7.46
2019-02-19T10:04:23.397Z,7.30
2019-02-19T10:06:56.689Z,7.23
2019-02-19T10:09:29.979Z,7.22
2019-02-19T10:12:03.259Z,7.20
2019-02-19T10:14:36.563Z,7.23
2019-02-19T10:17:09.831Z,7.23
2019-02-19T10:19:43.130Z,7.08
2019-02-19T10:22:16.400Z,6.98
2019-02-19T10:24:49.695Z,6.89
2019-02-19T10:27:22.980Z,6.93
2019-02-19T10:29:56.262Z,6.98
2019-02-19T10:32:31.931Z,6.99
2019-02-19T10:35:06.816Z,7.01
2019-02-19T10:37:40.760Z,6.97
2019-02-19T10:40:18.919Z,6.98
2019-02-19T10:42:52.281Z,6.99
2019-02-19T10:45:27.230Z,7.00
2019-02-19T10:48:02.095Z,7.00
2019-02-19T10:50:35.360Z,6.97
2019-02-19T10:53:08.685Z,6.95
2019-02-19T10:55:42.512Z,6.94
2019-02-19T10:58:22.515Z,6.89
2019-02-19T11:00:51.945Z,6.91
2019-02-19T11:03:25.249Z,6.91
2019-02-19T11:05:58.558Z,6.92
2019-02-19T11:08:31.829Z,6.86
2019-02-19T11:11:05.125Z,6.85
2019-02-19T11:13:38.424Z,6.88
2019-02-19T11:16:11.721Z,6.92
2019-02-19T11:18:45.020Z,7.02
2019-02-19T11:21:20.010Z,7.14
2019-02-19T11:23:53.447Z,7.21
2019-02-19T11:26:26.751Z,7.33
2019-02-19T11:29:00.031Z,7.53
2019-02-19T11:31:33.331Z,7.54
2019-02-19T11:34:06.606Z,7.69
2019-02-19T11:36:39.883Z,7.90
2019-02-19T11:39:14.054Z,8.10
2019-02-19T11:41:47.371Z,7.97
2019-02-19T11:44:20.657Z,8.07
2019-02-19T11:46:53.973Z,8.28
2019-02-19T11:49:27.255Z,8.15
2019-02-19T11:52:00.807Z,8.05
2019-02-19T11:54:34.075Z,8.32
2019-02-19T11:57:07.384Z,8.66
2019-02-19T11:59:40.678Z,8.91
2019-02-19T12:02:15.644Z,9.17
2019-02-19T12:04:48.944Z,9.20
2019-02-19T12:07:22.311Z,9.28
2019-02-19T12:09:55.655Z,9.19
2019-02-19T12:12:28.892Z,9.40
2019-02-19T12:15:02.211Z,9.40
2019-02-19T12:17:35.497Z,9.14
2019-02-19T12:20:13.265Z,8.93
2019-02-19T12:22:46.610Z,8.83
2019-02-19T12:25:19.921Z,9.01
2019-02-19T12:27:53.266Z,9.21
2019-02-19T12:30:26.554Z,9.43
2019-02-19T12:32:59.838Z,9.39
2019-02-19T12:35:33.133Z,9.90
2019-02-19T12:38:06.419Z,10.07
2019-02-19T12:40:39.726Z,10.28
2019-02-19T12:43:13.360Z,11.88
2019-02-19T12:45:46.779Z,10.71
2019-02-19T12:48:20.069Z,12.61
2019-02-19T12:50:53.832Z,12.79
2019-02-19T12:53:27.113Z,12.63
2019-02-19T12:56:00.397Z,13.66
2019-02-19T12:58:33.659Z,13.11
2019-02-19T13:01:08.627Z,12.29
2019-02-19T13:03:41.908Z,11.73
2019-02-19T13:06:15.202Z,12.54
2019-02-19T13:08:48.467Z,14.60
2019-02-19T13:11:21.786Z,13.70
2019-02-19T13:13:55.171Z,14.20
2019-02-19T13:16:28.481Z,13.88
2019-02-19T13:19:03.732Z,14.16
2019-02-19T13:21:37.167Z,14.87
2019-02-19T13:24:10.450Z,14.66
2019-02-19T13:26:43.766Z,14.57
2019-02-19T13:29:17.047Z,15.45
2019-02-19T13:31:50.358Z,16.24
2019-02-19T13:34:23.670Z,14.56
2019-02-19T13:36:56.960Z,15.71
2019-02-19T13:39:30.266Z,13.84
2019-02-19T13:42:03.561Z,15.02
2019-02-19T13:44:36.845Z,14.92
2019-02-19T13:47:10.394Z,14.75
2019-02-19T13:49:44.933Z,14.24
2019-02-19T13:52:22.546Z,15.46
2019-02-19T13:54:55.298Z,14.99
2019-02-19T13:57:28.572Z,14.57
2019-02-19T14:00:01.877Z,14.85
2019-02-19T14:02:35.157Z,13.26
2019-02-19T14:05:08.808Z,12.50
2019-02-19T14:07:42.111Z,11.46
2019-02-19T14:10:15.410Z,12.50
2019-02-19T14:12:48.764Z,11.58
2019-02-19T14:15:42.108Z,12.88
2019-02-19T14:18:17.048Z,12.00
2019-02-19T14:20:51.981Z,13.35
2019-02-19T14:23:43.336Z,13.61
2019-02-19T14:26:18.235Z,14.75
2019-02-19T14:29:02.377Z,12.82
2019-02-19T14:31:48.974Z,13.13
2019-02-19T14:34:29.722Z,11.76
2019-02-19T14:37:13.438Z,11.46
2019-02-19T14:39:50.826Z,12.35
2019-02-19T14:42:41.642Z,14.23
2019-02-19T14:45:28.523Z,13.44
2019-02-19T14:48:09.163Z,11.64
2019-02-19T14:50:47.060Z,12.30
2019-02-19T14:53:34.132Z,11.96
2019-02-19T14:56:12.149Z,11.96
2019-02-19T14:59:03.213Z,11.32
2019-02-19T15:01:54.310Z,13.24
2019-02-19T15:04:31.926Z,11.39
2019-02-19T15:07:09.770Z,11.12
2019-02-19T15:09:47.421Z,10.99
2019-02-19T15:12:28.383Z,10.89
2019-02-19T15:15:04.649Z,10.93
2019-02-19T15:17:39.566Z,11.61
2019-02-19T15:20:30.938Z,13.85
2019-02-19T15:23:12.094Z,15.57
2019-02-19T15:25:49.709Z,14.63
2019-02-19T15:28:36.590Z,14.63
2019-02-19T15:31:26.533Z,13.57
2019-02-19T15:34:07.172Z,13.75
2019-02-19T15:36:58.556Z,13.44
2019-02-19T15:39:36.168Z,13.13
2019-02-19T15:42:13.762Z,11.85
2019-02-19T15:44:48.698Z,11.13
2019-02-19T15:47:38.679Z,11.13
2019-02-19T15:50:29.699Z,11.10
2019-02-19T15:53:07.423Z,10.94
2019-02-19T15:55:58.787Z,10.92
2019-02-19T15:58:33.795Z,10.80
2019-02-19T16:01:26.454Z,10.71
2019-02-19T16:04:04.386Z,10.65
2019-02-19T16:06:55.213Z,10.53
2019-02-19T16:09:41.959Z,10.52
2019-02-19T16:12:16.899Z,10.44
2019-02-19T16:15:06.690Z,10.38
2019-02-19T16:17:47.538Z,10.31
2019-02-19T16:20:28.439Z,10.23
2019-02-19T16:23:06.379Z,10.23
2019-02-19T16:25:53.152Z,10.07
2019-02-19T16:28:34.264Z,10.02
2019-02-19T16:31:09.176Z,10.06
2019-02-19T16:33:49.891Z,9.94
2019-02-19T16:36:24.806Z,9.86
2019-02-19T16:39:17.504Z,9.72
2019-02-19T16:41:52.440Z,9.52
2019-02-19T16:44:30.396Z,9.43
2019-02-19T16:47:14.216Z,9.43
2019-02-19T16:50:08.067Z,9.30
2019-02-19T16:52:42.406Z,9.16
2019-02-19T16:55:20.180Z,9.05
2019-02-19T16:57:55.119Z,8.94
2019-02-19T17:00:39.039Z,8.82
2019-02-19T17:03:22.818Z,8.60
2019-02-19T17:06:03.528Z,8.43
2019-02-19T17:08:50.270Z,8.28
2019-02-19T17:11:34.768Z,8.06
2019-02-19T17:14:33.679Z,7.82
2019-02-19T17:17:17.720Z,7.81
2019-02-19T17:19:55.027Z,8.03
2019-02-19T17:22:30.045Z,8.12
2019-02-19T17:25:08.397Z,8.18
2019-02-19T17:27:43.326Z,8.07
2019-02-19T17:30:21.005Z,8.11
2019-02-19T17:33:04.624Z,7.91
2019-02-19T17:35:48.514Z,7.74
2019-02-19T17:38:35.160Z,7.59
2019-02-19T17:41:12.846Z,7.30
2019-02-19T17:43:56.863Z,7.38
2019-02-19T17:46:44.044Z,7.58
2019-02-19T17:49:30.947Z,7.58
2019-02-19T17:52:21.801Z,7.58
2019-02-19T17:54:56.715Z,7.42
2019-02-19T17:57:37.613Z,7.57
2019-02-19T18:00:25.285Z,7.50
2019-02-19T18:03:09.390Z,7.35
2019-02-19T18:06:00.438Z,7.36
2019-02-19T18:08:41.138Z,7.20
2019-02-19T18:11:18.520Z,7.10
2019-02-19T18:13:56.517Z,6.78
2019-02-19T18:16:40.302Z,6.61
2019-02-19T18:19:13.614Z,6.52
2019-02-19T18:21:46.904Z,6.55
2019-02-19T18:24:21.552Z,6.37
2019-02-19T18:26:55.013Z,6.16
2019-02-19T18:29:28.332Z,5.98
2019-02-19T18:32:01.609Z,6.23
2019-02-19T18:34:34.941Z,6.38
2019-02-19T18:37:08.202Z,6.05
2019-02-19T18:39:41.609Z,5.77
2019-02-19T18:42:14.893Z,5.58
2019-02-19T18:44:48.225Z,5.92
2019-02-19T18:47:21.504Z,5.94
2019-02-19T18:49:55.882Z,6.01
2019-02-19T18:52:29.147Z,6.06
2019-02-19T18:55:02.527Z,6.07
2019-02-19T18:57:35.808Z,5.93
2019-02-19T19:00:13.365Z,5.91
2019-02-19T19:02:46.724Z,5.99
2019-02-19T19:05:20.145Z,6.24
2019-02-19T19:07:53.406Z,6.45
2019-02-19T19:10:26.724Z,6.59
2019-02-19T19:13:00.171Z,6.82
2019-02-19T19:15:33.562Z,6.72
2019-02-19T19:18:06.947Z,6.49
2019-02-19T19:20:40.617Z,6.33
2019-02-19T19:23:13.916Z,6.19
2019-02-19T19:25:47.199Z,6.05
2019-02-19T19:28:20.492Z,5.91
2019-02-19T19:30:53.819Z,5.75
2019-02-19T19:33:27.135Z,5.72
2019-02-19T19:36:00.521Z,5.62
2019-02-19T19:38:33.843Z,5.45
2019-02-19T19:41:08.760Z,5.22
2019-02-19T19:43:42.024Z,5.01
2019-02-19T19:46:15.387Z,5.08
2019-02-19T19:48:48.660Z,5.08
2019-02-19T19:51:22.101Z,4.99
2019-02-19T19:53:55.395Z,4.99
2019-02-19T19:56:28.829Z,4.89
2019-02-19T19:59:02.126Z,4.80
2019-02-19T20:01:35.535Z,4.41
2019-02-19T20:04:08.912Z,4.11
2019-02-19T20:06:42.429Z,3.85
2019-02-19T20:09:16.009Z,3.70
2019-02-19T20:11:49.316Z,3.85
2019-02-19T20:14:22.743Z,3.68
2019-02-19T20:16:56.070Z,3.62
2019-02-19T20:19:29.404Z,3.93
2019-02-19T20:22:03.170Z,4.08
2019-02-19T20:24:38.019Z,4.14
2019-02-19T20:27:11.347Z,4.27
2019-02-19T20:29:45.639Z,4.42
2019-02-19T20:32:18.942Z,4.38
2019-02-19T20:34:52.611Z,4.68
2019-02-19T20:37:26.437Z,4.62
2019-02-19T20:39:59.729Z,4.98
2019-02-19T20:42:33.042Z,4.81
2019-02-19T20:45:13.094Z,4.71
2019-02-19T20:47:46.390Z,4.66
2019-02-19T20:50:19.711Z,4.43
2019-02-19T20:52:53.003Z,4.59
2019-02-19T20:55:26.785Z,4.58
2019-02-19T20:58:00.087Z,4.32
2019-02-19T21:00:33.572Z,4.40
2019-02-19T21:03:06.907Z,4.33
2019-02-19T21:05:40.244Z,4.28
2019-02-19T21:08:13.519Z,4.36
2019-02-19T21:10:47.180Z,4.23
2019-02-19T21:13:20.583Z,4.16
2019-02-19T21:15:53.910Z,4.28
2019-02-19T21:18:27.185Z,4.23
2019-02-19T21:21:00.475Z,4.11
2019-02-19T21:23:33.784Z,4.13
2019-02-19T21:26:07.160Z,4.16
2019-02-19T21:28:40.466Z,4.15
2019-02-19T21:31:13.785Z,4.20
2019-02-19T21:33:47.105Z,4.15
2019-02-19T21:36:20.245Z,4.04
2019-02-19T21:38:53.522Z,3.92
2019-02-19T21:41:26.820Z,3.80
2019-02-19T21:44:00.125Z,3.67
2019-02-19T21:46:33.406Z,3.56
2019-02-19T21:49:07.533Z,3.64
2019-02-19T21:51:40.854Z,3.57
2019-02-19T21:54:14.155Z,3.46
2019-02-19T21:56:47.463Z,3.28
2019-02-19T21:59:20.766Z,2.96
2019-02-19T22:01:54.147Z,2.86
2019-02-19T22:04:27.452Z,2.65
2019-02-19T22:07:01.373Z,2.58
2019-02-19T22:09:34.670Z,2.44
2019-02-19T22:12:09.187Z,2.31
2019-02-19T22:14:42.477Z,2.46
2019-02-19T22:17:15.800Z,2.54
2019-02-19T22:19:49.070Z,2.41
2019-02-19T22:22:22.379Z,2.57
2019-02-19T22:24:55.672Z,2.39
2019-02-19T22:27:28.962Z,2.12
2019-02-19T22:30:02.268Z,2.10
2019-02-19T22:32:35.593Z,2.16
2019-02-19T22:35:08.946Z,1.98
2019-02-19T22:37:42.259Z,1.94
2019-02-19T22:40:15.525Z,1.88
2019-02-19T22:42:48.830Z,1.76
2019-02-19T22:45:22.104Z,1.66
2019-02-19T22:47:55.427Z,2.01
2019-02-19T22:50:28.715Z,2.34
2019-02-19T22:53:03.665Z,2.47
2019-02-19T22:55:51.713Z,2.20
2019-02-19T22:58:25.236Z,2.14
2019-02-19T23:01:03.563Z,2.02
2019-02-19T23:03:37.735Z,1.97
2019-02-19T23:06:11.027Z,2.39
2019-02-19T23:08:44.342Z,2.04
2019-02-19T23:11:18.208Z,1.83
2019-02-19T23:13:51.483Z,1.68
2019-02-19T23:16:24.760Z,1.56
2019-02-19T23:18:58.078Z,1.99
2019-02-19T23:21:32.579Z,1.72
2019-02-19T23:24:05.861Z,1.64
2019-02-19T23:26:39.133Z,1.44
2019-02-19T23:29:12.430Z,1.43
2019-02-19T23:31:45.704Z,1.36
2019-02-19T23:34:18.994Z,1.17
2019-02-19T23:36:53.910Z,1.14
2019-02-19T23:39:27.218Z,1.17
2019-02-19T23:42:00.489Z,0.99
2019-02-19T23:44:33.767Z,0.84
2019-02-19T23:47:07.113Z,0.93
2019-02-19T23:49:40.412Z,1.22
2019-02-19T23:52:13.694Z,1.25
2019-02-19T23:54:46.999Z,1.11
2019-02-19T23:57:20.273Z,0.98
2019-02-19T23:59:53.594Z,0.92
